Balcosna, Argentina
Current Conditions -  °F | °C
As of 6:00 AM on Sunday 23 Nov 2014 (Local Time) from SANT Reporting Station
Clear Clear  
Wind Chill: 64°   Ceiling: Unl
Heat Index: 64°   Visibility: 6mi
Dew Point: 57°   Wind: 7mph
Humidity: 77%   Direction: 320°NW
Pressure: 29.85"   Gusts: NA
Location:  27.88°S, 65.72°W
Report Text: SANT 230900Z 32006KT CAVOK 18/14 Q1011
Loading
Personal Weather Stations






























Interactive Weather Map New forecast layout! Learn more

10-Day Weather Forecast

Advertisements
Track Severe Weather on mobile